createdAt,value
2018-12-16T00:00:53.839Z,18.67
2018-12-16T00:03:24.056Z,19.70
2018-12-16T00:05:53.306Z,18.80
2018-12-16T00:08:22.661Z,19.27
2018-12-16T00:10:51.930Z,18.30
2018-12-16T00:13:21.173Z,19.03
2018-12-16T00:15:51.143Z,21.43
2018-12-16T00:18:20.551Z,24.07
2018-12-16T00:20:49.771Z,18.80
2018-12-16T00:23:19.002Z,17.83
2018-12-16T00:25:48.242Z,17.43
2018-12-16T00:28:17.574Z,18.70
2018-12-16T00:30:47.432Z,18.80
2018-12-16T00:33:16.720Z,17.03
2018-12-16T00:35:45.972Z,15.97
2018-12-16T00:38:15.253Z,17.83
2018-12-16T00:40:44.693Z,18.90
2018-12-16T00:43:13.918Z,17.40
2018-12-16T00:45:43.241Z,16.33
2018-12-16T00:48:12.799Z,18.17
2018-12-16T00:50:42.077Z,18.93
2018-12-16T00:53:11.430Z,17.30
2018-12-16T00:55:40.769Z,17.80
2018-12-16T00:58:12.194Z,20.37
2018-12-16T01:00:43.488Z,21.07
2018-12-16T01:03:12.747Z,18.30
2018-12-16T01:05:42.074Z,18.00
2018-12-16T01:08:11.537Z,18.47
2018-12-16T01:10:40.894Z,20.90
2018-12-16T01:13:10.157Z,18.37
2018-12-16T01:15:39.406Z,18.50
2018-12-16T01:18:08.619Z,23.07
2018-12-16T01:20:38.106Z,14.30
2018-12-16T01:23:07.478Z,18.03
2018-12-16T01:25:37.494Z,14.80
2018-12-16T01:28:06.772Z,19.53
2018-12-16T01:30:36.004Z,19.13
2018-12-16T01:33:05.263Z,19.00
2018-12-16T01:35:34.709Z,20.43
2018-12-16T01:38:05.277Z,20.70
2018-12-16T01:40:34.562Z,21.10
2018-12-16T01:43:03.862Z,21.40
2018-12-16T01:45:33.375Z,19.90
2018-12-16T01:48:02.680Z,22.00
2018-12-16T01:50:32.432Z,21.30
2018-12-16T01:53:02.342Z,21.03
2018-12-16T01:55:31.581Z,18.23
2018-12-16T01:58:00.827Z,21.93
2018-12-16T02:00:30.171Z,23.03
2018-12-16T02:02:59.478Z,17.70
2018-12-16T02:05:28.695Z,20.73
2018-12-16T02:07:57.977Z,21.37
2018-12-16T02:10:27.223Z,22.83
2018-12-16T02:12:56.522Z,21.87
2018-12-16T02:15:26.871Z,22.20
2018-12-16T02:17:56.906Z,22.17
2018-12-16T02:20:26.212Z,22.83
2018-12-16T02:22:56.940Z,22.27
2018-12-16T02:25:27.014Z,21.43
2018-12-16T02:27:56.288Z,22.47
2018-12-16T02:30:28.615Z,18.97
2018-12-16T02:32:58.031Z,20.53
2018-12-16T02:35:27.266Z,23.10
2018-12-16T02:37:56.568Z,21.70
2018-12-16T02:40:25.798Z,19.73
2018-12-16T02:42:55.071Z,20.67
2018-12-16T02:45:24.326Z,18.27
2018-12-16T02:47:54.489Z,20.43
2018-12-16T02:50:23.738Z,18.60
2018-12-16T02:52:54.193Z,20.03
2018-12-16T02:55:24.135Z,18.93
2018-12-16T02:57:53.376Z,19.37
2018-12-16T03:00:22.663Z,24.53
2018-12-16T03:02:52.010Z,19.70
2018-12-16T03:05:22.030Z,22.23
2018-12-16T03:07:52.065Z,21.57
2018-12-16T03:10:21.349Z,20.47
2018-12-16T03:12:50.628Z,27.20
2018-12-16T03:15:20.668Z,20.27
2018-12-16T03:17:49.985Z,21.13
2018-12-16T03:20:19.305Z,19.67
2018-12-16T03:22:48.642Z,24.47
2018-12-16T03:25:18.115Z,21.33
2018-12-16T03:27:47.955Z,20.70
2018-12-16T03:30:18.273Z,21.10
2018-12-16T03:32:47.592Z,21.50
2018-12-16T03:35:16.854Z,24.27
2018-12-16T03:37:46.234Z,22.20
2018-12-16T03:40:15.627Z,23.67
2018-12-16T03:42:45.081Z,19.87
2018-12-16T03:45:14.353Z,23.80
2018-12-16T03:47:43.663Z,25.20
2018-12-16T03:50:12.939Z,25.80
2018-12-16T03:52:42.251Z,24.47
2018-12-16T03:55:11.625Z,30.33
2018-12-16T03:57:40.931Z,22.33
2018-12-16T04:00:10.443Z,24.73
2018-12-16T04:02:39.690Z,25.83
2018-12-16T04:05:09.434Z,24.60
2018-12-16T04:07:38.743Z,27.40
2018-12-16T04:10:08.178Z,22.57
2018-12-16T04:12:37.456Z,26.40
2018-12-16T04:15:07.936Z,23.00
2018-12-16T04:17:37.206Z,22.33
2018-12-16T04:20:06.745Z,23.80
2018-12-16T04:22:36.055Z,21.17
2018-12-16T04:25:05.860Z,19.77
2018-12-16T04:27:35.159Z,23.10
2018-12-16T04:30:04.996Z,24.33
2018-12-16T04:32:34.225Z,23.13
2018-12-16T04:35:03.692Z,17.10
2018-12-16T04:37:32.964Z,16.33
2018-12-16T04:40:03.186Z,12.40
2018-12-16T04:42:32.419Z,12.63
2018-12-16T04:45:01.699Z,13.13
2018-12-16T04:47:31.017Z,11.20
2018-12-16T04:50:00.291Z,10.47
2018-12-16T04:52:29.591Z,9.97
2018-12-16T04:54:59.477Z,10.27
2018-12-16T04:57:29.903Z,11.37
2018-12-16T04:59:59.105Z,9.30
2018-12-16T05:02:28.333Z,8.47
2018-12-16T05:04:57.683Z,6.67
2018-12-16T05:07:26.939Z,7.70
2018-12-16T05:10:06.070Z,8.60
2018-12-16T05:12:35.347Z,10.97
2018-12-16T05:15:04.913Z,9.97
2018-12-16T05:17:34.280Z,8.63
2018-12-16T05:20:03.800Z,7.97
2018-12-16T05:22:33.072Z,9.60
2018-12-16T05:25:02.394Z,9.53
2018-12-16T05:27:31.639Z,8.30
2018-12-16T05:30:01.829Z,7.43
2018-12-16T05:32:32.717Z,7.13
2018-12-16T05:35:02.322Z,13.67
2018-12-16T05:37:31.754Z,6.93
2018-12-16T05:40:01.150Z,7.70
2018-12-16T05:42:30.493Z,6.77
2018-12-16T05:44:59.740Z,8.10
2018-12-16T05:47:29.130Z,9.37
2018-12-16T05:49:58.816Z,7.87
2018-12-16T05:52:28.174Z,5.53
2018-12-16T05:54:57.499Z,5.73
2018-12-16T05:57:27.107Z,6.97
2018-12-16T05:59:56.460Z,6.70
2018-12-16T06:02:25.788Z,8.07
2018-12-16T06:04:55.055Z,6.60
2018-12-16T06:07:24.314Z,12.33
2018-12-16T06:09:53.646Z,5.43
2018-12-16T06:12:22.881Z,6.57
2018-12-16T06:14:52.179Z,5.73
2018-12-16T06:17:21.451Z,6.23
2018-12-16T06:19:51.319Z,7.13
2018-12-16T06:22:20.662Z,6.70
2018-12-16T06:24:49.965Z,7.77
2018-12-16T06:27:19.339Z,6.00
2018-12-16T06:29:49.050Z,6.27
2018-12-16T06:32:18.254Z,6.40
2018-12-16T06:34:47.556Z,4.87
2018-12-16T06:37:16.765Z,7.23
2018-12-16T06:39:46.030Z,6.93
2018-12-16T06:42:16.205Z,6.87
2018-12-16T06:44:45.568Z,6.37
2018-12-16T06:47:14.800Z,7.93
2018-12-16T06:49:44.043Z,6.27
2018-12-16T06:52:13.276Z,6.93
2018-12-16T06:54:42.506Z,6.97
2018-12-16T06:57:11.864Z,8.83
2018-12-16T06:59:41.079Z,7.07
2018-12-16T07:02:10.338Z,7.07
2018-12-16T07:04:39.825Z,6.63
2018-12-16T07:07:09.067Z,5.80
2018-12-16T07:09:38.591Z,9.90
2018-12-16T07:12:07.894Z,8.93
2018-12-16T07:14:37.130Z,9.03
2018-12-16T07:17:06.619Z,8.90
2018-12-16T07:19:36.434Z,7.17
2018-12-16T07:22:05.757Z,11.40
2018-12-16T07:24:34.997Z,9.17
2018-12-16T07:27:04.463Z,8.63
2018-12-16T07:29:33.648Z,8.90
2018-12-16T07:32:02.893Z,10.47
2018-12-16T07:34:32.349Z,12.87
2018-12-16T07:37:01.836Z,8.33
2018-12-16T07:39:31.229Z,9.07
2018-12-16T07:42:00.457Z,9.30
2018-12-16T07:44:29.850Z,12.57
2018-12-16T07:46:59.103Z,10.67
2018-12-16T07:49:28.379Z,10.97
2018-12-16T07:51:58.244Z,9.53
2018-12-16T07:54:27.505Z,11.17
2018-12-16T07:56:56.732Z,10.23
2018-12-16T07:59:27.593Z,10.87
2018-12-16T08:01:56.918Z,12.10
2018-12-16T08:04:26.135Z,12.07
2018-12-16T08:06:55.581Z,11.53
2018-12-16T08:09:24.824Z,8.77
2018-12-16T08:11:54.200Z,8.57
2018-12-16T08:14:23.490Z,10.43
2018-12-16T08:16:52.886Z,9.80
2018-12-16T08:19:23.698Z,8.50
2018-12-16T08:21:53.028Z,7.23
2018-12-16T08:24:23.676Z,8.90
2018-12-16T08:26:53.067Z,8.37
2018-12-16T08:29:23.574Z,7.40
2018-12-16T08:31:53.362Z,6.57
2018-12-16T08:34:22.984Z,8.40
2018-12-16T08:36:52.280Z,7.17
2018-12-16T08:39:21.561Z,7.63
2018-12-16T08:41:50.772Z,8.83
2018-12-16T08:44:20.114Z,5.87
2018-12-16T08:46:49.364Z,10.33
2018-12-16T08:49:18.575Z,5.43
2018-12-16T08:51:47.814Z,6.97
2018-12-16T08:54:17.059Z,6.57
2018-12-16T08:56:46.551Z,6.73
2018-12-16T08:59:17.174Z,5.33
2018-12-16T09:01:46.795Z,5.03
2018-12-16T09:04:16.259Z,5.13
2018-12-16T09:06:46.354Z,6.40
2018-12-16T09:09:15.866Z,5.53
2018-12-16T09:11:45.228Z,4.87
2018-12-16T09:14:14.575Z,5.93
2018-12-16T09:16:44.184Z,5.77
2018-12-16T09:19:14.146Z,9.17
2018-12-16T09:21:44.726Z,5.23
2018-12-16T09:24:14.957Z,7.27
2018-12-16T09:26:45.869Z,4.87
2018-12-16T09:29:15.092Z,4.90
2018-12-16T09:31:45.389Z,4.30
2018-12-16T09:34:18.689Z,6.10
2018-12-16T09:36:51.091Z,3.87
2018-12-16T09:39:20.455Z,5.07
2018-12-16T09:41:51.576Z,6.43
2018-12-16T09:44:21.066Z,6.20
2018-12-16T09:46:50.927Z,3.90
2018-12-16T09:49:20.212Z,4.07
2018-12-16T09:51:50.448Z,5.50
2018-12-16T09:54:19.787Z,5.47
2018-12-16T09:56:49.812Z,7.10
2018-12-16T09:59:19.176Z,4.97
2018-12-16T10:01:48.511Z,4.07
2018-12-16T10:04:19.240Z,4.30
2018-12-16T10:06:48.555Z,3.47
2018-12-16T10:09:19.409Z,4.30
2018-12-16T10:11:48.982Z,3.97
2018-12-16T10:14:18.387Z,5.50
2018-12-16T10:16:49.023Z,3.60
2018-12-16T10:19:18.353Z,4.40
2018-12-16T10:21:47.561Z,4.70
2018-12-16T10:24:17.207Z,4.93
2018-12-16T10:26:46.674Z,4.10
2018-12-16T10:29:15.936Z,4.43
2018-12-16T10:31:45.381Z,5.43
2018-12-16T10:34:15.662Z,9.90
2018-12-16T10:36:45.173Z,5.90
2018-12-16T10:39:14.792Z,6.03
2018-12-16T10:41:47.030Z,6.70
2018-12-16T10:44:17.442Z,7.83
2018-12-16T10:46:47.387Z,6.47
2018-12-16T10:49:17.020Z,6.67
2018-12-16T10:51:46.485Z,6.80
2018-12-16T10:54:15.783Z,8.67
2018-12-16T10:56:45.025Z,5.47
2018-12-16T10:59:14.981Z,5.20
2018-12-16T11:01:44.387Z,5.93
2018-12-16T11:04:13.584Z,4.33
2018-12-16T11:06:44.068Z,5.87
2018-12-16T11:09:14.843Z,6.17
2018-12-16T11:11:44.407Z,4.47
2018-12-16T11:14:14.377Z,5.63
2018-12-16T11:16:43.677Z,7.67
2018-12-16T11:19:14.327Z,7.23
2018-12-16T11:21:43.610Z,6.20
2018-12-16T11:24:12.873Z,4.97
2018-12-16T11:26:42.423Z,6.70
2018-12-16T11:29:11.756Z,7.00
2018-12-16T11:31:41.606Z,6.73
2018-12-16T11:34:12.836Z,6.33
2018-12-16T11:36:43.350Z,6.57
2018-12-16T11:39:13.320Z,7.27
2018-12-16T11:41:42.761Z,8.80
2018-12-16T11:44:13.202Z,7.97
2018-12-16T11:46:44.893Z,9.50
2018-12-16T11:49:15.610Z,8.70
2018-12-16T11:51:45.814Z,11.03
2018-12-16T11:54:15.901Z,10.80
2018-12-16T11:56:45.476Z,9.03
2018-12-16T11:59:14.802Z,8.33
2018-12-16T12:01:47.059Z,8.47
2018-12-16T12:07:02.601Z,8.07
2018-12-16T12:09:31.784Z,8.80
2018-12-16T12:12:01.029Z,9.53
2018-12-16T12:14:30.269Z,10.37
2018-12-16T12:16:59.532Z,10.53
2018-12-16T12:19:37.912Z,6.80
2018-12-16T12:22:07.967Z,9.13
2018-12-16T12:24:38.169Z,8.70
2018-12-16T12:27:07.621Z,7.00
2018-12-16T12:29:36.820Z,11.03
2018-12-16T12:32:06.026Z,7.83
2018-12-16T12:34:38.600Z,9.90
2018-12-16T12:37:07.892Z,12.47
2018-12-16T12:39:48.152Z,9.47
2018-12-16T12:42:17.416Z,11.43
2018-12-16T12:44:46.622Z,10.87
2018-12-16T12:47:15.962Z,8.97
2018-12-16T12:49:45.382Z,13.23
2018-12-16T12:52:15.003Z,13.60
2018-12-16T12:54:44.316Z,10.73
2018-12-16T12:57:13.662Z,10.63
2018-12-16T12:59:42.966Z,15.47
2018-12-16T13:02:12.674Z,18.10
2018-12-16T13:04:41.979Z,35.00
2018-12-16T13:07:11.250Z,39.03
2018-12-16T13:09:41.321Z,27.53
2018-12-16T13:12:11.188Z,11.23
2018-12-16T13:14:41.236Z,9.10
2018-12-16T13:17:10.427Z,8.93
2018-12-16T13:19:39.667Z,10.67
2018-12-16T13:22:08.989Z,11.27
2018-12-16T13:25:45.859Z,9.00
2018-12-16T13:28:16.140Z,8.73
2018-12-16T13:30:45.383Z,8.73
2018-12-16T13:33:14.673Z,9.50
2018-12-16T13:38:21.211Z,9.43
2018-12-16T13:43:25.276Z,10.33
2018-12-16T13:45:55.542Z,10.37
2018-12-16T13:48:26.839Z,15.33
2018-12-16T13:50:56.068Z,13.93
2018-12-16T13:53:25.309Z,14.50
2018-12-16T13:55:55.108Z,9.60
2018-12-16T13:58:24.385Z,13.03
2018-12-16T14:00:54.515Z,16.33
2018-12-16T14:03:23.770Z,10.43
2018-12-16T14:05:53.282Z,8.60
2018-12-16T14:08:22.569Z,11.37
2018-12-16T14:10:52.673Z,9.43
2018-12-16T14:13:21.933Z,12.10
2018-12-16T14:15:52.533Z,10.37
2018-12-16T14:18:22.100Z,9.90
2018-12-16T14:20:51.551Z,9.83
2018-12-16T14:23:20.819Z,10.57
2018-12-16T14:25:50.039Z,10.27
2018-12-16T14:28:19.267Z,10.90
2018-12-16T14:30:48.725Z,11.10
2018-12-16T14:33:17.987Z,10.90
2018-12-16T14:35:47.228Z,11.27
2018-12-16T14:38:16.624Z,11.27
2018-12-16T14:40:45.870Z,12.03
2018-12-16T14:43:15.101Z,10.73
2018-12-16T14:45:44.353Z,10.77
2018-12-16T14:48:14.151Z,10.97
2018-12-16T14:50:44.641Z,9.30
2018-12-16T14:53:13.851Z,13.63
2018-12-16T14:55:43.120Z,10.77
2018-12-16T14:58:12.510Z,9.37
2018-12-16T15:00:41.746Z,11.47
2018-12-16T15:03:11.044Z,9.60
2018-12-16T15:05:40.253Z,8.33
2018-12-16T15:08:09.513Z,9.37
2018-12-16T15:10:38.786Z,12.10
2018-12-16T15:13:10.200Z,6.33
2018-12-16T15:15:43.191Z,8.67
2018-12-16T15:18:13.962Z,5.97
2018-12-16T15:20:50.969Z,7.00
2018-12-16T15:23:20.308Z,7.87
2018-12-16T15:25:49.635Z,8.63
2018-12-16T15:28:28.757Z,6.87
2018-12-16T15:31:01.284Z,11.23
2018-12-16T15:33:30.617Z,11.87
2018-12-16T15:35:59.818Z,9.57
2018-12-16T15:38:31.473Z,9.93
2018-12-16T15:41:00.770Z,11.60
2018-12-16T15:43:29.983Z,8.93
2018-12-16T15:45:59.273Z,10.23
2018-12-16T15:48:28.850Z,8.73
2018-12-16T15:50:58.233Z,9.13
2018-12-16T15:53:28.105Z,7.50
2018-12-16T15:55:57.445Z,7.63
2018-12-16T15:58:28.112Z,8.07
2018-12-16T16:01:00.779Z,9.57
2018-12-16T16:03:30.261Z,8.20
2018-12-16T16:05:59.634Z,9.47
2018-12-16T16:08:28.854Z,9.10
2018-12-16T16:11:01.541Z,7.73
2018-12-16T16:13:31.886Z,10.17
2018-12-16T16:16:01.829Z,10.97
2018-12-16T16:18:31.310Z,8.63
2018-12-16T16:21:01.618Z,9.07
2018-12-16T16:23:30.948Z,6.33
2018-12-16T16:26:00.146Z,13.83
2018-12-16T16:28:29.486Z,9.03
2018-12-16T16:30:59.018Z,8.37
2018-12-16T16:33:29.173Z,8.87
2018-12-16T16:35:58.616Z,6.77
2018-12-16T16:38:27.984Z,7.57
2018-12-16T16:40:59.624Z,5.53
2018-12-16T16:43:28.916Z,7.67
2018-12-16T16:45:58.120Z,6.83
2018-12-16T16:48:27.395Z,5.47
2018-12-16T16:50:56.732Z,7.17
2018-12-16T16:53:25.948Z,9.87
2018-12-16T16:55:55.236Z,6.70
2018-12-16T16:58:24.556Z,8.97
2018-12-16T17:00:54.707Z,8.73
2018-12-16T17:03:23.916Z,8.77
2018-12-16T17:05:54.064Z,8.87
2018-12-16T17:08:23.234Z,7.27
2018-12-16T17:10:52.434Z,5.87
2018-12-16T17:13:22.829Z,5.77
2018-12-16T17:15:52.086Z,6.60
2018-12-16T17:18:21.499Z,7.47
2018-12-16T17:20:50.831Z,12.60
2018-12-16T17:23:20.021Z,7.00
2018-12-16T17:25:49.571Z,5.23
2018-12-16T17:28:18.819Z,8.47
2018-12-16T17:30:48.133Z,6.87
2018-12-16T17:33:17.358Z,8.60
2018-12-16T17:35:46.633Z,7.10
2018-12-16T17:38:16.602Z,7.93
2018-12-16T17:40:45.901Z,8.37
2018-12-16T17:43:15.106Z,7.47
2018-12-16T17:45:44.689Z,7.83
2018-12-16T17:48:13.989Z,6.80
2018-12-16T17:50:43.252Z,7.13
2018-12-16T17:53:13.230Z,12.63
2018-12-16T17:55:42.522Z,8.80
2018-12-16T17:58:13.533Z,11.50
2018-12-16T18:00:43.430Z,8.47
2018-12-16T18:03:12.646Z,6.90
2018-12-16T18:05:42.004Z,10.13
2018-12-16T18:08:11.315Z,8.37
2018-12-16T18:10:40.655Z,8.40
2018-12-16T18:13:09.849Z,9.07
2018-12-16T18:15:39.095Z,6.03
2018-12-16T18:18:08.462Z,8.53
2018-12-16T18:20:37.754Z,7.03
2018-12-16T18:23:06.988Z,6.10
2018-12-16T18:25:36.367Z,9.67
2018-12-16T18:28:05.593Z,5.67
2018-12-16T18:30:35.770Z,4.83
2018-12-16T18:33:05.484Z,4.93
2018-12-16T18:35:34.751Z,9.03
2018-12-16T18:38:04.190Z,6.67
2018-12-16T18:40:33.520Z,7.00
2018-12-16T18:43:02.884Z,9.13
2018-12-16T18:45:32.154Z,5.70
2018-12-16T18:48:01.749Z,6.93
2018-12-16T18:50:30.952Z,7.57
2018-12-16T18:53:00.231Z,7.47
2018-12-16T18:55:29.514Z,6.73
2018-12-16T18:58:00.817Z,6.53
2018-12-16T19:00:30.046Z,8.37
2018-12-16T19:02:59.480Z,5.57
2018-12-16T19:05:28.739Z,7.50
2018-12-16T19:07:57.981Z,6.73
2018-12-16T19:10:27.204Z,8.53
2018-12-16T19:12:56.421Z,6.57
2018-12-16T19:15:25.912Z,7.73
2018-12-16T19:17:55.133Z,8.13
2018-12-16T19:20:25.054Z,7.50
2018-12-16T19:22:55.129Z,5.50
2018-12-16T19:25:24.356Z,6.07
2018-12-16T19:27:53.631Z,6.87
2018-12-16T19:30:23.077Z,9.57
2018-12-16T19:32:52.338Z,6.27
2018-12-16T19:35:21.669Z,8.20
2018-12-16T19:37:50.970Z,5.33
2018-12-16T19:40:20.639Z,8.23
2018-12-16T19:42:49.848Z,6.77
2018-12-16T19:45:19.164Z,6.70
2018-12-16T19:47:49.677Z,8.70
2018-12-16T19:50:20.416Z,6.57
2018-12-16T19:52:49.967Z,4.90
2018-12-16T19:55:19.642Z,5.87
2018-12-16T19:57:49.158Z,5.60
2018-12-16T20:00:18.690Z,4.17
2018-12-16T20:02:48.220Z,7.43
2018-12-16T20:05:23.579Z,4.87
2018-12-16T20:07:53.006Z,5.97
2018-12-16T20:10:22.364Z,7.47
2018-12-16T20:12:53.794Z,7.07
2018-12-16T20:15:23.936Z,5.57
2018-12-16T20:17:53.201Z,4.53
2018-12-16T20:20:22.478Z,5.80
2018-12-16T20:22:52.219Z,6.33
2018-12-16T20:25:22.401Z,5.10
2018-12-16T20:27:52.002Z,4.57
2018-12-16T20:30:21.411Z,5.93
2018-12-16T20:32:50.697Z,6.73
2018-12-16T20:35:20.258Z,4.43
2018-12-16T20:37:49.901Z,4.83
2018-12-16T20:40:19.461Z,4.93
2018-12-16T20:42:49.153Z,3.90
2018-12-16T20:45:18.396Z,3.47
2018-12-16T20:47:47.691Z,4.27
2018-12-16T20:50:16.939Z,4.33
2018-12-16T20:52:46.350Z,3.63
2018-12-16T20:55:15.677Z,3.63
2018-12-16T20:57:44.913Z,2.60
2018-12-16T21:00:14.157Z,3.27
2018-12-16T21:02:43.518Z,5.17
2018-12-16T21:05:12.842Z,3.00
2018-12-16T21:07:42.056Z,2.83
2018-12-16T21:10:11.287Z,4.17
2018-12-16T21:12:45.851Z,6.13
2018-12-16T21:15:26.177Z,3.03
2018-12-16T21:18:00.771Z,2.50
2018-12-16T21:20:31.416Z,3.03
2018-12-16T21:23:00.639Z,3.97
2018-12-16T21:25:30.397Z,4.70
2018-12-16T21:27:59.721Z,2.77
2018-12-16T21:30:28.913Z,2.13
2018-12-16T21:32:58.173Z,2.80
2018-12-16T21:35:27.656Z,4.70
2018-12-16T21:37:57.051Z,5.40
2018-12-16T21:40:27.048Z,2.40
2018-12-16T21:42:56.685Z,2.70
2018-12-16T21:45:26.234Z,3.20
2018-12-16T21:47:55.450Z,4.10
2018-12-16T21:50:24.729Z,2.87
2018-12-16T21:52:53.949Z,2.87
2018-12-16T21:55:23.229Z,4.27
2018-12-16T21:57:52.458Z,3.83
2018-12-16T22:00:21.943Z,2.93
2018-12-16T22:02:51.238Z,4.40
2018-12-16T22:05:24.622Z,2.67
2018-12-16T22:07:55.179Z,3.10
2018-12-16T22:10:24.376Z,4.50
2018-12-16T22:12:53.935Z,4.27
2018-12-16T22:15:23.171Z,3.73
2018-12-16T22:17:52.399Z,3.97
2018-12-16T22:20:22.079Z,4.00
2018-12-16T22:22:51.339Z,3.73
2018-12-16T22:25:20.586Z,3.67
2018-12-16T22:27:51.591Z,4.03
2018-12-16T22:30:21.585Z,4.87
2018-12-16T22:32:50.933Z,3.93
2018-12-16T22:35:20.111Z,3.33
2018-12-16T22:37:49.603Z,5.53
2018-12-16T22:40:18.949Z,2.80
2018-12-16T22:42:48.195Z,2.93
2018-12-16T22:45:17.823Z,2.30
2018-12-16T22:47:47.407Z,2.40
2018-12-16T22:50:16.625Z,2.73
2018-12-16T22:52:45.855Z,2.80
2018-12-16T22:55:15.438Z,5.20
2018-12-16T22:57:47.154Z,2.43
2018-12-16T23:00:18.231Z,3.63
2018-12-16T23:02:47.663Z,2.93
2018-12-16T23:05:16.876Z,4.03
2018-12-16T23:07:46.107Z,4.10
2018-12-16T23:10:15.295Z,5.10
2018-12-16T23:12:44.705Z,2.70
2018-12-16T23:15:14.607Z,3.53
2018-12-16T23:17:43.938Z,3.23
2018-12-16T23:20:19.540Z,2.67
2018-12-16T23:22:48.875Z,2.67
2018-12-16T23:25:18.318Z,3.43
2018-12-16T23:27:53.978Z,4.90
2018-12-16T23:30:18.766Z,2.97
2018-12-16T23:32:47.995Z,4.10
2018-12-16T23:35:17.216Z,5.23
2018-12-16T23:37:46.603Z,4.97
2018-12-16T23:40:15.896Z,3.23
2018-12-16T23:42:45.178Z,3.37
2018-12-16T23:45:15.088Z,3.33
2018-12-16T23:47:45.800Z,4.97
2018-12-16T23:50:15.321Z,2.27
2018-12-16T23:52:45.527Z,5.00
2018-12-16T23:55:14.799Z,4.13
2018-12-16T23:57:44.025Z,7.13
